createdAt,value
2019-05-13T00:00:35.350Z,22.50
2019-05-13T00:01:35.429Z,45.00
2019-05-13T00:02:35.354Z,90.00
2019-05-13T00:03:35.431Z,90.00
2019-05-13T00:04:35.469Z,22.50
2019-05-13T00:05:35.289Z,90.00
2019-05-13T00:06:49.918Z,292.50
2019-05-13T00:07:35.322Z,22.50
2019-05-13T00:08:35.297Z,225.00
2019-05-13T00:09:35.384Z,0.00
2019-05-13T00:10:35.285Z,0.00
2019-05-13T00:11:35.343Z,0.00
2019-05-13T00:12:35.561Z,315.00
2019-05-13T00:13:35.404Z,292.50
2019-05-13T00:14:35.383Z,225.00
2019-05-13T00:15:35.359Z,202.50
2019-05-13T00:16:35.428Z,0.00
2019-05-13T00:17:35.355Z,0.00
2019-05-13T00:18:35.432Z,202.50
2019-05-13T00:19:35.357Z,45.00
2019-05-13T00:20:35.438Z,202.50
2019-05-13T00:21:35.357Z,45.00
2019-05-13T00:22:35.363Z,67.50
2019-05-13T00:23:35.430Z,67.50
2019-05-13T00:24:35.437Z,67.50
2019-05-13T00:25:35.431Z,67.50
2019-05-13T00:26:35.389Z,67.50
2019-05-13T00:27:35.413Z,45.00
2019-05-13T00:28:35.398Z,90.00
2019-05-13T00:29:35.395Z,90.00
2019-05-13T00:30:35.457Z,45.00
2019-05-13T00:31:35.402Z,67.50
2019-05-13T00:32:35.479Z,90.00
2019-05-13T00:33:35.404Z,67.50
2019-05-13T00:34:35.401Z,67.50
2019-05-13T00:35:35.333Z,67.50
2019-05-13T00:36:35.439Z,90.00
2019-05-13T00:37:35.386Z,67.50
2019-05-13T00:38:35.385Z,67.50
2019-05-13T00:39:35.455Z,67.50
2019-05-13T00:40:35.423Z,67.50
2019-05-13T00:41:35.476Z,67.50
2019-05-13T00:42:35.473Z,45.00
2019-05-13T00:43:35.414Z,22.50
2019-05-13T00:44:35.502Z,22.50
2019-05-13T00:45:35.404Z,180.00
2019-05-13T00:46:35.438Z,22.50
2019-05-13T00:47:35.404Z,22.50
2019-05-13T00:48:35.358Z,22.50
2019-05-13T00:49:35.337Z,45.00
2019-05-13T00:50:35.442Z,22.50
2019-05-13T00:51:35.393Z,22.50
2019-05-13T00:52:35.442Z,67.50
2019-05-13T00:53:35.526Z,112.50
2019-05-13T00:54:35.393Z,22.50
2019-05-13T00:55:35.442Z,22.50
2019-05-13T00:56:35.421Z,45.00
2019-05-13T00:57:35.497Z,45.00
2019-05-13T00:58:35.383Z,45.00
2019-05-13T00:59:35.418Z,67.50
2019-05-13T01:00:35.483Z,45.00
2019-05-13T01:01:35.443Z,22.50
2019-05-13T01:02:35.491Z,67.50
2019-05-13T01:03:35.504Z,22.50
2019-05-13T01:04:35.504Z,22.50
2019-05-13T01:05:35.431Z,67.50
2019-05-13T01:06:35.464Z,45.00
2019-05-13T01:07:35.397Z,22.50
2019-05-13T01:08:35.395Z,22.50
2019-05-13T01:09:35.473Z,22.50
2019-05-13T01:10:35.471Z,22.50
2019-05-13T01:11:35.469Z,22.50
2019-05-13T01:12:35.404Z,22.50
2019-05-13T01:13:35.473Z,22.50
2019-05-13T01:14:35.417Z,0.00
2019-05-13T01:15:35.478Z,0.00
2019-05-13T01:16:35.500Z,0.00
2019-05-13T01:17:35.511Z,22.50
2019-05-13T01:18:35.449Z,22.50
2019-05-13T01:19:35.505Z,22.50
2019-05-13T01:20:35.499Z,22.50
2019-05-13T01:21:35.454Z,22.50
2019-05-13T01:22:35.499Z,22.50
2019-05-13T01:23:35.497Z,22.50
2019-05-13T01:24:35.481Z,67.50
2019-05-13T01:25:35.454Z,45.00
2019-05-13T01:26:35.501Z,45.00
2019-05-13T01:27:35.497Z,22.50
2019-05-13T01:28:35.503Z,45.00
2019-05-13T01:29:35.438Z,22.50
2019-05-13T01:30:35.469Z,22.50
2019-05-13T01:31:35.502Z,22.50
2019-05-13T01:32:35.462Z,22.50
2019-05-13T01:33:35.426Z,22.50
2019-05-13T01:34:35.499Z,22.50
2019-05-13T01:35:35.507Z,22.50
2019-05-13T01:36:35.427Z,45.00
2019-05-13T01:37:42.151Z,45.00
2019-05-13T01:38:35.420Z,22.50
2019-05-13T01:39:35.422Z,45.00
2019-05-13T01:40:35.490Z,45.00
2019-05-13T01:41:35.432Z,45.00
2019-05-13T01:42:35.498Z,45.00
2019-05-13T01:43:35.424Z,45.00
2019-05-13T01:44:35.461Z,45.00
2019-05-13T01:45:35.430Z,67.50
2019-05-13T01:46:35.449Z,67.50
2019-05-13T01:47:35.516Z,67.50
2019-05-13T01:48:35.434Z,67.50
2019-05-13T01:49:35.509Z,45.00
2019-05-13T01:50:35.508Z,67.50
2019-05-13T01:51:35.450Z,67.50
2019-05-13T01:52:35.521Z,67.50
2019-05-13T01:53:35.516Z,67.50
2019-05-13T01:54:35.409Z,90.00
2019-05-13T01:55:35.441Z,112.50
2019-05-13T01:56:35.538Z,90.00
2019-05-13T01:57:35.548Z,67.50
2019-05-13T01:58:35.533Z,45.00
2019-05-13T01:59:35.405Z,67.50
2019-05-13T02:00:35.751Z,90.00
2019-05-13T02:01:35.448Z,112.50
2019-05-13T02:02:35.408Z,67.50
2019-05-13T02:03:35.547Z,22.50
2019-05-13T02:04:35.483Z,67.50
2019-05-13T02:05:35.481Z,67.50
2019-05-13T02:06:35.497Z,67.50
2019-05-13T02:07:35.404Z,90.00
2019-05-13T02:08:35.498Z,45.00
2019-05-13T02:09:35.421Z,45.00
2019-05-13T02:10:35.451Z,90.00
2019-05-13T02:11:35.419Z,67.50
2019-05-13T02:12:35.455Z,45.00
2019-05-13T02:13:35.417Z,67.50
2019-05-13T02:14:35.434Z,45.00
2019-05-13T02:15:35.510Z,45.00
2019-05-13T02:16:35.473Z,45.00
2019-05-13T02:17:35.471Z,67.50
2019-05-13T02:18:35.468Z,45.00
2019-05-13T02:19:35.539Z,45.00
2019-05-13T02:20:35.458Z,67.50
2019-05-13T02:21:35.468Z,22.50
2019-05-13T02:22:35.473Z,22.50
2019-05-13T02:23:35.542Z,45.00
2019-05-13T02:24:35.542Z,45.00
2019-05-13T02:25:35.464Z,22.50
2019-05-13T02:26:35.375Z,45.00
2019-05-13T02:27:35.464Z,247.50
2019-05-13T02:28:35.356Z,22.50
2019-05-13T02:29:35.498Z,112.50
2019-05-13T02:30:35.402Z,22.50
2019-05-13T02:31:45.201Z,22.50
2019-05-13T02:32:35.473Z,45.00
2019-05-13T02:33:35.398Z,45.00
2019-05-13T02:34:35.473Z,45.00
2019-05-13T02:35:35.383Z,45.00
2019-05-13T02:36:35.477Z,67.50
2019-05-13T02:37:35.479Z,45.00
2019-05-13T02:38:35.973Z,45.00
2019-05-13T02:39:35.476Z,45.00
2019-05-13T02:40:35.482Z,22.50
2019-05-13T02:41:35.546Z,22.50
2019-05-13T02:42:35.475Z,22.50
2019-05-13T02:43:35.530Z,22.50
2019-05-13T02:44:35.488Z,22.50
2019-05-13T02:45:35.579Z,22.50
2019-05-13T02:46:35.466Z,22.50
2019-05-13T02:47:35.485Z,22.50
2019-05-13T02:48:35.472Z,45.00
2019-05-13T02:49:35.525Z,45.00
2019-05-13T02:50:35.523Z,45.00
2019-05-13T02:51:35.470Z,45.00
2019-05-13T02:52:35.503Z,67.50
2019-05-13T02:53:35.442Z,45.00
2019-05-13T02:54:35.541Z,67.50
2019-05-13T02:55:35.539Z,90.00
2019-05-13T02:56:35.501Z,135.00
2019-05-13T02:57:35.514Z,90.00
2019-05-13T02:58:35.454Z,45.00
2019-05-13T02:59:35.452Z,45.00
2019-05-13T03:00:35.435Z,67.50
2019-05-13T03:01:35.562Z,225.00
2019-05-13T03:02:35.424Z,90.00
2019-05-13T03:03:35.552Z,135.00
2019-05-13T03:04:35.454Z,67.50
2019-05-13T03:05:35.550Z,22.50
2019-05-13T03:06:35.545Z,22.50
2019-05-13T03:07:35.550Z,22.50
2019-05-13T03:08:46.191Z,22.50
2019-05-13T03:09:35.548Z,22.50
2019-05-13T03:10:35.466Z,135.00
2019-05-13T03:11:35.430Z,67.50
2019-05-13T03:12:35.558Z,45.00
2019-05-13T03:13:35.483Z,67.50
2019-05-13T03:14:35.547Z,22.50
2019-05-13T03:15:35.458Z,22.50
2019-05-13T03:16:35.504Z,67.50
2019-05-13T03:17:35.582Z,67.50
2019-05-13T03:18:35.466Z,45.00
2019-05-13T03:19:35.489Z,45.00
2019-05-13T03:20:35.519Z,112.50
2019-05-13T03:21:35.689Z,45.00
2019-05-13T03:22:35.522Z,67.50
2019-05-13T03:23:35.572Z,67.50
2019-05-13T03:24:35.575Z,90.00
2019-05-13T03:25:35.579Z,90.00
2019-05-13T03:26:35.594Z,67.50
2019-05-13T03:27:35.693Z,45.00
2019-05-13T03:28:35.531Z,45.00
2019-05-13T03:29:35.554Z,135.00
2019-05-13T03:30:35.959Z,180.00
2019-05-13T03:31:36.396Z,202.50
2019-05-13T03:32:43.497Z,157.50
2019-05-13T03:33:37.705Z,67.50
2019-05-13T03:34:36.786Z,45.00
2019-05-13T03:35:37.134Z,67.50
2019-05-13T03:36:36.601Z,135.00
2019-05-13T03:37:35.527Z,67.50
2019-05-13T03:38:53.636Z,45.00
2019-05-13T03:39:35.602Z,45.00
2019-05-13T03:40:35.594Z,67.50
2019-05-13T03:41:35.524Z,45.00
2019-05-13T03:42:35.569Z,45.00
2019-05-13T03:43:35.514Z,112.50
2019-05-13T03:44:35.600Z,135.00
2019-05-13T03:45:35.631Z,90.00
2019-05-13T03:46:35.579Z,90.00
2019-05-13T03:47:35.502Z,90.00
2019-05-13T03:48:35.582Z,67.50
2019-05-13T03:49:35.516Z,67.50
2019-05-13T03:50:35.584Z,67.50
2019-05-13T03:51:35.516Z,157.50
2019-05-13T03:52:35.585Z,135.00
2019-05-13T03:53:35.584Z,22.50
2019-05-13T03:54:35.518Z,22.50
2019-05-13T03:55:35.514Z,22.50
2019-05-13T03:56:35.619Z,67.50
2019-05-13T03:57:35.523Z,45.00
2019-05-13T03:58:35.536Z,22.50
2019-05-13T03:59:35.531Z,22.50
2019-05-13T04:00:35.546Z,22.50
2019-05-13T04:01:35.609Z,22.50
2019-05-13T04:02:35.602Z,45.00
2019-05-13T04:03:35.534Z,22.50
2019-05-13T04:04:35.601Z,22.50
2019-05-13T04:05:35.546Z,67.50
2019-05-13T04:06:35.610Z,45.00
2019-05-13T04:07:35.539Z,22.50
2019-05-13T04:08:35.538Z,22.50
2019-05-13T04:09:36.802Z,22.50
2019-05-13T04:10:35.630Z,67.50
2019-05-13T04:11:35.606Z,45.00
2019-05-13T04:12:35.539Z,112.50
2019-05-13T04:13:35.546Z,135.00
2019-05-13T04:14:35.604Z,67.50
2019-05-13T04:15:35.549Z,22.50
2019-05-13T04:16:35.509Z,45.00
2019-05-13T04:17:35.531Z,45.00
2019-05-13T04:18:35.490Z,45.00
2019-05-13T04:19:35.526Z,22.50
2019-05-13T04:20:35.601Z,22.50
2019-05-13T04:21:35.603Z,45.00
2019-05-13T04:22:35.518Z,45.00
2019-05-13T04:23:35.537Z,67.50
2019-05-13T04:24:35.603Z,67.50
2019-05-13T04:25:39.615Z,45.00
2019-05-13T04:26:35.577Z,22.50
2019-05-13T04:27:35.606Z,22.50
2019-05-13T04:28:35.537Z,22.50
2019-05-13T04:29:35.507Z,45.00
2019-05-13T04:30:35.542Z,45.00
2019-05-13T04:31:35.609Z,45.00
2019-05-13T04:32:35.614Z,22.50
2019-05-13T04:33:35.550Z,22.50
2019-05-13T04:34:35.614Z,22.50
2019-05-13T04:35:35.558Z,22.50
2019-05-13T04:36:35.616Z,22.50
2019-05-13T04:37:35.541Z,22.50
2019-05-13T04:38:35.564Z,90.00
2019-05-13T04:39:45.880Z,22.50
2019-05-13T04:40:35.544Z,45.00
2019-05-13T04:41:35.559Z,22.50
2019-05-13T04:42:35.622Z,45.00
2019-05-13T04:43:35.555Z,22.50
2019-05-13T04:44:35.578Z,22.50
2019-05-13T04:45:35.627Z,45.00
2019-05-13T04:46:35.565Z,45.00
2019-05-13T04:47:35.564Z,45.00
2019-05-13T04:48:39.383Z,22.50
2019-05-13T04:49:35.564Z,157.50
2019-05-13T04:50:35.565Z,45.00
2019-05-13T04:51:35.702Z,22.50
2019-05-13T04:52:35.567Z,45.00
2019-05-13T04:53:35.571Z,22.50
2019-05-13T04:54:35.638Z,45.00
2019-05-13T04:55:35.601Z,45.00
2019-05-13T04:56:35.634Z,22.50
2019-05-13T04:57:35.641Z,22.50
2019-05-13T04:58:35.564Z,22.50
2019-05-13T04:59:40.063Z,22.50
2019-05-13T05:00:35.560Z,45.00
2019-05-13T05:01:40.176Z,45.00
2019-05-13T05:02:39.900Z,45.00
2019-05-13T05:03:44.571Z,45.00
2019-05-13T05:04:35.656Z,67.50
2019-05-13T05:05:35.546Z,45.00
2019-05-13T05:06:35.657Z,67.50
2019-05-13T05:07:35.571Z,67.50
2019-05-13T05:08:35.580Z,90.00
2019-05-13T05:09:40.409Z,112.50
2019-05-13T05:10:38.831Z,90.00
2019-05-13T05:11:35.654Z,90.00
2019-05-13T05:12:35.657Z,67.50
2019-05-13T05:13:35.601Z,90.00
2019-05-13T05:14:35.587Z,67.50
2019-05-13T05:15:35.585Z,135.00
2019-05-13T05:16:35.573Z,135.00
2019-05-13T05:17:35.538Z,135.00
2019-05-13T05:18:35.581Z,180.00
2019-05-13T05:19:35.482Z,135.00
2019-05-13T05:20:35.516Z,112.50
2019-05-13T05:21:35.471Z,67.50
2019-05-13T05:22:35.534Z,112.50
2019-05-13T05:23:35.523Z,112.50
2019-05-13T05:24:35.482Z,135.00
2019-05-13T05:25:35.592Z,202.50
2019-05-13T05:26:35.645Z,180.00
2019-05-13T05:27:35.561Z,157.50
2019-05-13T05:28:35.589Z,270.00
2019-05-13T05:29:35.649Z,202.50
2019-05-13T05:30:35.564Z,135.00
2019-05-13T05:31:35.605Z,135.00
2019-05-13T05:32:36.068Z,90.00
2019-05-13T05:33:35.664Z,112.50
2019-05-13T05:34:35.585Z,90.00
2019-05-13T05:35:35.581Z,270.00
2019-05-13T05:36:35.599Z,90.00
2019-05-13T05:37:35.669Z,45.00
2019-05-13T05:38:35.672Z,90.00
2019-05-13T05:39:35.684Z,90.00
2019-05-13T05:40:35.670Z,247.50
2019-05-13T05:41:35.672Z,67.50
2019-05-13T05:42:35.671Z,22.50
2019-05-13T05:43:35.670Z,67.50
2019-05-13T05:44:35.679Z,45.00
2019-05-13T05:45:35.675Z,45.00
2019-05-13T05:46:35.630Z,45.00
2019-05-13T05:47:35.676Z,157.50
2019-05-13T05:48:35.610Z,67.50
2019-05-13T05:49:35.622Z,67.50
2019-05-13T05:50:35.693Z,45.00
2019-05-13T05:51:35.675Z,270.00
2019-05-13T05:52:35.612Z,270.00
2019-05-13T05:53:35.617Z,0.00
2019-05-13T05:54:35.616Z,292.50
2019-05-13T05:55:35.614Z,90.00
2019-05-13T05:56:35.685Z,90.00
2019-05-13T05:57:35.619Z,22.50
2019-05-13T05:58:35.669Z,45.00
2019-05-13T05:59:35.686Z,225.00
2019-05-13T06:00:35.688Z,45.00
2019-05-13T06:01:37.437Z,112.50
2019-05-13T06:02:35.626Z,45.00
2019-05-13T06:03:35.691Z,270.00
2019-05-13T06:04:35.690Z,247.50
2019-05-13T06:05:35.617Z,202.50
2019-05-13T06:06:35.703Z,247.50
2019-05-13T06:07:35.622Z,315.00
2019-05-13T06:08:35.695Z,292.50
2019-05-13T06:09:35.695Z,270.00
2019-05-13T06:10:46.702Z,202.50
2019-05-13T06:11:35.642Z,202.50
2019-05-13T06:12:35.695Z,315.00
2019-05-13T06:13:35.631Z,247.50
2019-05-13T06:14:35.698Z,247.50
2019-05-13T06:15:35.700Z,270.00
2019-05-13T06:16:35.686Z,247.50
2019-05-13T06:17:35.684Z,225.00
2019-05-13T06:18:35.597Z,202.50
2019-05-13T06:19:35.628Z,202.50
2019-05-13T06:20:35.566Z,247.50
2019-05-13T06:21:35.569Z,225.00
2019-05-13T06:22:35.693Z,202.50
2019-05-13T06:23:35.688Z,202.50
2019-05-13T06:24:35.592Z,247.50
2019-05-13T06:25:35.597Z,45.00
2019-05-13T06:26:35.732Z,112.50
2019-05-13T06:27:35.596Z,292.50
2019-05-13T06:28:35.621Z,315.00
2019-05-13T06:29:35.579Z,270.00
2019-05-13T06:30:35.622Z,292.50
2019-05-13T06:31:35.626Z,225.00
2019-05-13T06:32:35.698Z,225.00
2019-05-13T06:33:35.629Z,292.50
2019-05-13T06:34:35.699Z,247.50
2019-05-13T06:35:35.698Z,180.00
2019-05-13T06:36:35.705Z,202.50
2019-05-13T06:37:35.641Z,112.50
2019-05-13T06:38:35.650Z,135.00
2019-05-13T06:39:35.704Z,225.00
2019-05-13T06:40:35.618Z,202.50
2019-05-13T06:41:35.643Z,292.50
2019-05-13T06:42:35.695Z,292.50
2019-05-13T06:43:35.641Z,292.50
2019-05-13T06:44:35.632Z,247.50
2019-05-13T06:45:35.584Z,270.00
2019-05-13T06:46:35.588Z,270.00
2019-05-13T06:47:36.252Z,225.00
2019-05-13T06:48:35.583Z,247.50
2019-05-13T06:49:35.667Z,270.00
2019-05-13T06:50:35.613Z,225.00
2019-05-13T06:51:35.703Z,292.50
2019-05-13T06:52:35.692Z,270.00
2019-05-13T06:53:35.711Z,225.00
2019-05-13T06:54:35.699Z,270.00
2019-05-13T06:55:35.625Z,270.00
2019-05-13T06:56:35.675Z,292.50
2019-05-13T06:57:35.626Z,292.50
2019-05-13T06:58:35.716Z,292.50
2019-05-13T06:59:35.649Z,292.50
2019-05-13T07:00:35.723Z,270.00
2019-05-13T07:01:35.731Z,270.00
2019-05-13T07:02:35.629Z,292.50
2019-05-13T07:03:35.644Z,270.00
2019-05-13T07:04:35.658Z,292.50
2019-05-13T07:05:35.722Z,292.50
2019-05-13T07:06:35.652Z,270.00
2019-05-13T07:07:35.673Z,292.50
2019-05-13T07:08:35.772Z,270.00
2019-05-13T07:09:35.739Z,292.50
2019-05-13T07:10:35.737Z,292.50
2019-05-13T07:11:35.750Z,270.00
2019-05-13T07:12:35.672Z,180.00
2019-05-13T07:13:35.669Z,247.50
2019-05-13T07:14:35.672Z,292.50
2019-05-13T07:15:35.743Z,225.00
2019-05-13T07:16:35.680Z,270.00
2019-05-13T07:17:35.628Z,225.00
2019-05-13T07:18:35.663Z,270.00
2019-05-13T07:19:35.623Z,247.50
2019-05-13T07:20:35.657Z,247.50
2019-05-13T07:21:35.735Z,270.00
2019-05-13T07:22:35.743Z,247.50
2019-05-13T07:23:35.727Z,270.00
2019-05-13T07:24:35.628Z,247.50
2019-05-13T07:25:35.640Z,247.50
2019-05-13T07:26:35.731Z,292.50
2019-05-13T07:27:35.679Z,270.00
2019-05-13T07:28:35.725Z,247.50
2019-05-13T07:29:35.748Z,247.50
2019-05-13T07:30:35.684Z,270.00
2019-05-13T07:31:35.683Z,270.00
2019-05-13T07:32:35.692Z,270.00
2019-05-13T07:33:35.760Z,247.50
2019-05-13T07:34:35.760Z,292.50
2019-05-13T07:35:37.989Z,292.50
2019-05-13T07:36:35.686Z,247.50
2019-05-13T07:37:35.672Z,247.50
2019-05-13T07:38:35.678Z,270.00
2019-05-13T07:39:35.657Z,180.00
2019-05-13T07:40:35.751Z,247.50
2019-05-13T07:41:39.493Z,270.00
2019-05-13T07:42:35.663Z,270.00
2019-05-13T07:43:35.679Z,202.50
2019-05-13T07:44:35.738Z,135.00
2019-05-13T07:45:35.674Z,157.50
2019-05-13T07:46:35.684Z,225.00
2019-05-13T07:47:35.764Z,202.50
2019-05-13T07:48:35.768Z,225.00
2019-05-13T07:49:35.772Z,247.50
2019-05-13T07:50:50.329Z,225.00
2019-05-13T07:51:35.693Z,270.00
2019-05-13T07:52:35.698Z,292.50
2019-05-13T07:53:35.767Z,247.50
2019-05-13T07:54:35.711Z,180.00
2019-05-13T07:55:35.788Z,202.50
2019-05-13T07:56:35.761Z,202.50
2019-05-13T07:57:35.757Z,202.50
2019-05-13T07:58:37.506Z,247.50
2019-05-13T07:59:35.707Z,225.00
2019-05-13T08:00:35.660Z,180.00
2019-05-13T08:01:35.678Z,157.50
2019-05-13T08:02:35.737Z,247.50
2019-05-13T08:03:35.768Z,202.50
2019-05-13T08:04:35.699Z,180.00
2019-05-13T08:05:35.764Z,225.00
2019-05-13T08:06:35.766Z,247.50
2019-05-13T08:07:35.711Z,225.00
2019-05-13T08:08:35.713Z,157.50
2019-05-13T08:09:35.719Z,270.00
2019-05-13T08:10:35.779Z,292.50
2019-05-13T08:11:53.594Z,270.00
2019-05-13T08:12:35.781Z,270.00
2019-05-13T08:13:35.732Z,270.00
2019-05-13T08:14:35.832Z,202.50
2019-05-13T08:15:35.714Z,225.00
2019-05-13T08:16:35.716Z,180.00
2019-05-13T08:17:35.775Z,180.00
2019-05-13T08:18:35.706Z,225.00
2019-05-13T08:19:35.777Z,270.00
2019-05-13T08:20:35.707Z,180.00
2019-05-13T08:21:35.777Z,157.50
2019-05-13T08:22:35.704Z,225.00
2019-05-13T08:23:35.704Z,202.50
2019-05-13T08:24:35.701Z,157.50
2019-05-13T08:25:35.720Z,225.00
2019-05-13T08:26:37.936Z,247.50
2019-05-13T08:27:35.800Z,270.00
2019-05-13T08:28:35.705Z,157.50
2019-05-13T08:29:35.708Z,135.00
2019-05-13T08:30:35.722Z,157.50
2019-05-13T08:31:35.719Z,202.50
2019-05-13T08:32:35.787Z,202.50
2019-05-13T08:33:35.785Z,225.00
2019-05-13T08:34:35.715Z,247.50
2019-05-13T08:35:35.788Z,247.50
2019-05-13T08:36:39.154Z,202.50
2019-05-13T08:37:35.667Z,202.50
2019-05-13T08:38:35.723Z,225.00
2019-05-13T08:39:38.449Z,112.50
2019-05-13T08:40:35.731Z,157.50
2019-05-13T08:41:35.733Z,225.00
2019-05-13T08:42:35.766Z,247.50
2019-05-13T08:43:35.756Z,202.50
2019-05-13T08:44:35.702Z,157.50
2019-05-13T08:45:35.737Z,247.50
2019-05-13T08:46:35.675Z,157.50
2019-05-13T08:47:35.685Z,180.00
2019-05-13T08:48:35.620Z,270.00
2019-05-13T08:49:35.737Z,247.50
2019-05-13T08:50:35.740Z,225.00
2019-05-13T08:51:35.700Z,270.00
2019-05-13T08:52:35.729Z,270.00
2019-05-13T08:53:35.740Z,225.00
2019-05-13T08:54:35.649Z,202.50
2019-05-13T08:55:35.657Z,225.00
2019-05-13T08:56:35.692Z,180.00
2019-05-13T08:57:35.747Z,225.00
2019-05-13T08:58:35.736Z,225.00
2019-05-13T08:59:35.729Z,202.50
2019-05-13T09:00:35.720Z,180.00
2019-05-13T09:01:35.669Z,202.50
2019-05-13T09:02:35.753Z,202.50
2019-05-13T09:03:35.787Z,225.00
2019-05-13T09:04:35.767Z,270.00
2019-05-13T09:05:35.806Z,180.00
2019-05-13T09:06:35.721Z,270.00
2019-05-13T09:07:35.736Z,225.00
2019-05-13T09:08:35.740Z,180.00
2019-05-13T09:09:35.813Z,202.50
2019-05-13T09:10:35.811Z,247.50
2019-05-13T09:11:35.813Z,180.00
2019-05-13T09:12:38.312Z,225.00
2019-05-13T09:13:35.740Z,157.50
2019-05-13T09:14:35.748Z,202.50
2019-05-13T09:15:35.741Z,135.00
2019-05-13T09:16:35.817Z,225.00
2019-05-13T09:17:35.779Z,180.00
2019-05-13T09:18:35.731Z,180.00
2019-05-13T09:19:35.811Z,270.00
2019-05-13T09:20:35.780Z,202.50
2019-05-13T09:21:35.729Z,225.00
2019-05-13T09:22:35.811Z,157.50
2019-05-13T09:23:35.763Z,247.50
2019-05-13T09:24:37.741Z,202.50
2019-05-13T09:25:35.824Z,247.50
2019-05-13T09:26:35.739Z,202.50
2019-05-13T09:27:35.828Z,247.50
2019-05-13T09:28:35.827Z,202.50
2019-05-13T09:29:35.752Z,225.00
2019-05-13T09:30:35.767Z,202.50
2019-05-13T09:31:35.755Z,135.00
2019-05-13T09:32:35.753Z,180.00
2019-05-13T09:33:35.755Z,270.00
2019-05-13T09:34:35.759Z,202.50
2019-05-13T09:35:35.833Z,157.50
2019-05-13T09:36:35.773Z,225.00
2019-05-13T09:37:35.838Z,247.50
2019-05-13T09:38:35.775Z,270.00
2019-05-13T09:39:35.829Z,202.50
2019-05-13T09:40:35.831Z,180.00
2019-05-13T09:41:40.873Z,202.50
2019-05-13T09:42:48.231Z,202.50
2019-05-13T09:43:35.840Z,157.50
2019-05-13T09:44:35.749Z,157.50
2019-05-13T09:45:35.760Z,270.00
2019-05-13T09:46:35.753Z,247.50
2019-05-13T09:47:35.770Z,157.50
2019-05-13T09:48:35.852Z,225.00
2019-05-13T09:49:35.754Z,247.50
2019-05-13T09:50:36.323Z,157.50
2019-05-13T09:51:35.852Z,202.50
2019-05-13T09:52:39.575Z,247.50
2019-05-13T09:53:35.836Z,247.50
2019-05-13T09:54:35.773Z,225.00
2019-05-13T09:55:35.759Z,225.00
2019-05-13T09:56:35.846Z,247.50
2019-05-13T09:57:35.762Z,157.50
2019-05-13T09:58:35.812Z,270.00
2019-05-13T09:59:35.779Z,270.00
2019-05-13T10:00:35.728Z,270.00
2019-05-13T10:01:35.774Z,270.00
2019-05-13T10:02:35.787Z,270.00
2019-05-13T10:03:51.978Z,292.50
2019-05-13T10:04:35.711Z,180.00
2019-05-13T10:05:35.721Z,225.00
2019-05-13T10:06:35.725Z,180.00
2019-05-13T10:07:35.855Z,247.50
2019-05-13T10:08:35.781Z,247.50
2019-05-13T10:09:35.811Z,292.50
2019-05-13T10:10:35.856Z,292.50
2019-05-13T10:11:35.821Z,270.00
2019-05-13T10:12:35.857Z,270.00
2019-05-13T10:13:35.806Z,270.00
2019-05-13T10:14:35.862Z,202.50
2019-05-13T10:15:35.772Z,135.00
2019-05-13T10:16:35.792Z,202.50
2019-05-13T10:17:35.875Z,247.50
2019-05-13T10:18:35.808Z,225.00
2019-05-13T10:19:35.818Z,157.50
2019-05-13T10:20:35.875Z,292.50
2019-05-13T10:21:35.809Z,202.50
2019-05-13T10:22:35.812Z,247.50
2019-05-13T10:23:35.812Z,202.50
2019-05-13T10:24:35.880Z,202.50
2019-05-13T10:25:35.823Z,270.00
2019-05-13T10:26:35.814Z,135.00
2019-05-13T10:27:35.886Z,292.50
2019-05-13T10:28:35.886Z,247.50
2019-05-13T10:29:35.891Z,292.50
2019-05-13T10:30:35.812Z,247.50
2019-05-13T10:31:35.869Z,315.00
2019-05-13T10:32:35.824Z,270.00
2019-05-13T10:33:35.813Z,292.50
2019-05-13T10:34:35.856Z,247.50
2019-05-13T10:35:35.888Z,225.00
2019-05-13T10:36:35.821Z,225.00
2019-05-13T10:37:35.890Z,180.00
2019-05-13T10:38:35.821Z,157.50
2019-05-13T10:39:35.834Z,180.00
2019-05-13T10:40:35.823Z,180.00
2019-05-13T10:41:35.926Z,225.00
2019-05-13T10:42:35.892Z,247.50
2019-05-13T10:43:40.156Z,247.50
2019-05-13T10:44:35.897Z,112.50
2019-05-13T10:45:35.905Z,292.50
2019-05-13T10:46:35.895Z,270.00
2019-05-13T10:47:35.827Z,292.50
2019-05-13T10:48:35.835Z,270.00
2019-05-13T10:49:35.849Z,202.50
2019-05-13T10:50:35.842Z,292.50
2019-05-13T10:51:35.830Z,202.50
2019-05-13T10:52:35.903Z,270.00
2019-05-13T10:53:35.826Z,225.00
2019-05-13T10:54:35.908Z,292.50
2019-05-13T10:55:35.903Z,225.00
2019-05-13T10:56:35.908Z,202.50
2019-05-13T10:57:35.835Z,180.00
2019-05-13T10:58:35.896Z,202.50
2019-05-13T10:59:35.830Z,135.00
2019-05-13T11:00:35.840Z,225.00
2019-05-13T11:01:35.918Z,225.00
2019-05-13T11:02:35.904Z,225.00
2019-05-13T11:03:35.836Z,270.00
2019-05-13T11:04:35.906Z,292.50
2019-05-13T11:05:41.067Z,270.00
2019-05-13T11:06:35.913Z,270.00
2019-05-13T11:07:35.922Z,292.50
2019-05-13T11:08:35.857Z,292.50
2019-05-13T11:09:35.848Z,315.00
2019-05-13T11:10:35.847Z,157.50
2019-05-13T11:11:35.912Z,270.00
2019-05-13T11:12:35.847Z,225.00
2019-05-13T11:13:52.232Z,225.00
2019-05-13T11:14:35.802Z,270.00
2019-05-13T11:15:40.979Z,247.50
2019-05-13T11:16:35.843Z,270.00
2019-05-13T11:17:35.832Z,247.50
2019-05-13T11:18:35.782Z,247.50
2019-05-13T11:19:37.099Z,247.50
2019-05-13T11:20:35.865Z,292.50
2019-05-13T11:21:35.835Z,225.00
2019-05-13T11:22:35.851Z,270.00
2019-05-13T11:23:35.891Z,157.50
2019-05-13T11:24:35.869Z,270.00
2019-05-13T11:25:35.867Z,270.00
2019-05-13T11:26:36.665Z,270.00
2019-05-13T11:27:35.924Z,292.50
2019-05-13T11:28:35.920Z,247.50
2019-05-13T11:29:35.872Z,202.50
2019-05-13T11:30:35.858Z,247.50
2019-05-13T11:31:35.857Z,270.00
2019-05-13T11:32:35.932Z,247.50
2019-05-13T11:33:35.929Z,180.00
2019-05-13T11:34:35.939Z,247.50
2019-05-13T11:35:35.930Z,247.50
2019-05-13T11:36:35.863Z,247.50
2019-05-13T11:37:35.934Z,270.00
2019-05-13T11:38:35.932Z,270.00
2019-05-13T11:39:35.872Z,292.50
2019-05-13T11:40:35.959Z,270.00
2019-05-13T11:41:35.936Z,270.00
2019-05-13T11:42:35.898Z,157.50
2019-05-13T11:43:35.868Z,247.50
2019-05-13T11:44:35.937Z,225.00
2019-05-13T11:45:35.870Z,135.00
2019-05-13T11:46:35.953Z,135.00
2019-05-13T11:47:35.938Z,225.00
2019-05-13T11:48:35.893Z,225.00
2019-05-13T11:49:35.942Z,202.50
2019-05-13T11:50:35.955Z,157.50
2019-05-13T11:51:35.934Z,247.50
2019-05-13T11:52:35.875Z,270.00
2019-05-13T11:53:37.754Z,247.50
2019-05-13T11:54:35.871Z,270.00
2019-05-13T11:55:35.948Z,247.50
2019-05-13T11:56:35.954Z,247.50
2019-05-13T11:57:35.940Z,202.50
2019-05-13T11:58:35.870Z,225.00
2019-05-13T11:59:35.973Z,157.50
2019-05-13T12:00:35.939Z,202.50
2019-05-13T12:01:35.866Z,247.50
2019-05-13T12:02:35.876Z,202.50
2019-05-13T12:03:35.852Z,292.50
2019-05-13T12:04:35.865Z,270.00
2019-05-13T12:05:35.940Z,270.00
2019-05-13T12:06:35.869Z,225.00
2019-05-13T12:07:35.890Z,247.50
2019-05-13T12:08:35.892Z,292.50
2019-05-13T12:09:35.956Z,270.00
2019-05-13T12:10:35.955Z,180.00
2019-05-13T12:11:35.886Z,247.50
2019-05-13T12:12:35.971Z,247.50
2019-05-13T12:13:35.958Z,270.00
2019-05-13T12:15:46.051Z,247.50
2019-05-13T12:16:35.891Z,247.50
2019-05-13T12:17:35.890Z,292.50
2019-05-13T12:18:43.228Z,247.50
2019-05-13T12:19:35.895Z,180.00
2019-05-13T12:20:35.990Z,202.50
2019-05-13T12:21:41.950Z,202.50
2019-05-13T12:22:35.897Z,247.50
2019-05-13T12:23:35.910Z,270.00
2019-05-13T12:24:35.962Z,270.00
2019-05-13T12:25:35.965Z,270.00
2019-05-13T12:26:35.901Z,202.50
2019-05-13T12:27:35.967Z,247.50
2019-05-13T12:28:36.006Z,247.50
2019-05-13T12:29:35.969Z,202.50
2019-05-13T12:30:35.899Z,247.50
2019-05-13T12:31:35.909Z,225.00
2019-05-13T12:32:35.971Z,270.00
2019-05-13T12:33:35.978Z,247.50
2019-05-13T12:34:40.528Z,247.50
2019-05-13T12:35:35.904Z,270.00
2019-05-13T12:36:35.955Z,270.00
2019-05-13T12:37:35.908Z,270.00
2019-05-13T12:38:35.916Z,270.00
2019-05-13T12:39:35.905Z,247.50